Latest Weather Observations for Sellicks Hill

IDS60801

Issued at 4:31 am CST Sunday 19 April 2015 (issued every 30 minutes, with the page automatically refreshed every 10 minutes)

About weather observations | Map of weather stations | Latest weather observations for SA | Other Formats
Station Details ID: 023886 Name: MOUNT TERRIBLE RADAR Lat: -35.33 Lon: 138.50 Height: 385.7 m
Data from the previous 72 hours. | See also: Recent months for locations in South Australia
Date/Time
CST
Temp
°C
App
Temp
°C
Dew
Point
Rel
Hum
%
Delta-T
°C
Wind Press
QNH
hPa
Press
MSL
hPa
Rain
since 9 am
mm
Dir
 
Spd
km/h
Gust
km/h
Spd
kts
Gust
kts
19/04:30am - - - - - S 30 35 16 19 - - -
19/04:00am - - - - - S 33 43 18 23 - - -
19/03:30am - - - - - S 28 35 15 19 - - -
19/03:00am - - - - - S 22 30 12 16 - - -
19/02:30am - - - - - S 19 24 10 13 - - -
19/02:00am - - - - - S 19 22 10 12 - - -
19/01:30am - - - - - S 15 22 8 12 - - -
19/01:00am - - - - - S 19 28 10 15 - - -
19/12:30am - - - - - S 15 22 8 12 - - -
19/12:00am - - - - - S 15 24 8 13 - - -
 
Date/Time
CST
Temp
°C
App
Temp
°C
Dew
Point
Rel
Hum
%
Delta-T
°C
Wind Press
QNH
hPa
Press
MSL
hPa
Rain
since 9 am
mm
Dir
 
Spd
km/h
Gust
km/h
Spd
kts
Gust
kts
18/11:30pm - - - - - S 19 26 10 14 - - -
18/11:00pm - - - - - S 13 24 7 13 - - -
18/10:30pm - - - - - S 13 22 7 12 - - -
18/10:00pm - - - - - S 19 24 10 13 - - -
18/09:30pm - - - - - S 15 22 8 12 - - -
18/09:00pm - - - - - SSW 11 20 6 11 - - -
18/08:30pm - - - - - S 15 28 8 15 - - -
18/08:00pm - - - - - SSW 11 17 6 9 - - -
18/07:30pm - - - - - SSW 9 17 5 9 - - -
18/07:00pm - - - - - SSW 9 17 5 9 - - -
18/06:30pm - - - - - SSW 7 13 4 7 - - -
18/06:00pm - - - - - SSW 11 17 6 9 - - -
18/05:30pm - - - - - S 13 19 7 10 - - -
18/05:00pm - - - - - SSW 17 28 9 15 - - -
18/04:30pm - - - - - SSW 13 22 7 12 - - -
18/04:00pm - - - - - SSW 19 28 10 15 - - -
18/03:30pm - - - - - SSW 19 28 10 15 - - -
18/03:00pm - - - - - S 20 30 11 16 - - -
18/02:30pm - - - - - WSW 17 30 9 16 - - -
18/02:00pm - - - - - NW 15 37 8 20 - - -
18/01:30pm - - - - - NW 17 32 9 17 - - -
18/01:00pm - - - - - NNW 19 32 10 17 - - -
18/12:30pm - - - - - NW 17 32 9 17 - - -
18/12:00pm - - - - - NNW 26 43 14 23 - - -
18/11:30am - - - - - NNW 20 35 11 19 - - -
18/11:00am - - - - - NW 24 43 13 23 - - -
18/10:30am - - - - - NNW 19 33 10 18 - - -
18/10:00am - - - - - NW 19 32 10 17 - - -
18/09:30am - - - - - NNW 20 32 11 17 - - -
18/09:00am - - - - - NW 13 32 7 17 - - -
18/08:30am - - - - - NW 15 24 8 13 - - -
18/08:00am - - - - - NW 15 28 8 15 - - -
18/07:30am - - - - - NW 9 17 5 9 - - -
18/07:00am - - - - - NW 9 19 5 10 - - -
18/06:30am - - - - - NW 11 17 6 9 - - -
18/06:00am - - - - - WNW 11 17 6 9 - - -
18/05:30am - - - - - WNW 9 22 5 12 - - -
18/05:00am - - - - - WNW 11 20 6 11 - - -
18/04:30am - - - - - WNW 9 20 5 11 - - -
18/04:00am - - - - - WNW 9 20 5 11 - - -
18/03:30am - - - - - WNW 9 19 5 10 - - -
18/03:00am - - - - - WNW 9 17 5 9 - - -
18/02:30am - - - - - W 6 17 3 9 - - -
18/02:00am - - - - - WNW 6 11 3 6 - - -
18/01:30am - - - - - W 6 9 3 5 - - -
18/01:00am - - - - - WSW 4 9 2 5 - - -
18/12:30am - - - - - WNW 6 9 3 5 - - -
18/12:00am - - - - - SW 7 13 4 7 - - -
 
Date/Time
CST
Temp
°C
App
Temp
°C
Dew
Point
Rel
Hum
%
Delta-T
°C
Wind Press
QNH
hPa
Press
MSL
hPa
Rain
since 9 am
mm
Dir
 
Spd
km/h
Gust
km/h
Spd
kts
Gust
kts
17/11:30pm - - - - - SSW 9 13 5 7 - - -
17/11:00pm - - - - - SSW 7 13 4 7 - - -
17/10:30pm - - - - - S 11 13 6 7 - - -
17/10:00pm - - - - - S 9 13 5 7 - - -
17/09:30pm - - - - - S 13 19 7 10 - - -
17/09:00pm - - - - - S 19 22 10 12 - - -
17/08:30pm - - - - - SSE 13 17 7 9 - - -
17/08:00pm - - - - - SSE 17 20 9 11 - - -
17/07:30pm - - - - - SSE 19 20 10 11 - - -
17/07:00pm - - - - - S 11 17 6 9 - - -
17/06:30pm - - - - - SW 4 6 2 3 - - -
17/06:00pm - - - - - S 7 13 4 7 - - -
17/05:30pm - - - - - ESE 9 13 5 7 - - -
17/05:00pm - - - - - SE 19 24 10 13 - - -
17/04:30pm - - - - - SE 20 26 11 14 - - -
17/04:00pm - - - - - SE 22 28 12 15 - - -
17/03:30pm - - - - - SE 22 28 12 15 - - -
17/03:00pm - - - - - SE 24 30 13 16 - - -
17/02:30pm - - - - - SSE 28 32 15 17 - - -
17/02:00pm - - - - - SSE 32 37 17 20 - - -
17/01:30pm - - - - - SSE 33 39 18 21 - - -
17/01:00pm - - - - - SSE 32 37 17 20 - - -
17/12:30pm - - - - - SSE 37 44 20 24 - - -
17/12:00pm - - - - - SE 37 46 20 25 - - -
17/11:30am - - - - - SSE 35 41 19 22 - - -
17/11:00am - - - - - SE 37 44 20 24 - - -
17/10:30am - - - - - SE 37 43 20 23 - - -
17/10:00am - - - - - SE 39 46 21 25 - - -
17/09:30am - - - - - SE 33 43 18 23 - - -
17/09:00am - - - - - SE 32 39 17 21 - - -
17/08:30am - - - - - SE 33 39 18 21 - - -
17/08:00am - - - - - SE 30 37 16 20 - - -
17/07:30am - - - - - SE 33 43 18 23 - - -
17/07:00am - - - - - SE 37 48 20 26 - - -
17/06:30am - - - - - SE 33 41 18 22 - - -
17/06:00am - - - - - SE 30 35 16 19 - - -
17/05:30am - - - - - SE 24 30 13 16 - - -
17/05:00am - - - - - SE 24 30 13 16 - - -
17/04:30am - - - - - SE 28 33 15 18 - - -
17/04:00am - - - - - SE 26 32 14 17 - - -
17/03:30am - - - - - ESE 19 24 10 13 - - -
17/03:00am - - - - - SE 22 30 12 16 - - -
17/02:30am - - - - - SE 28 33 15 18 - - -
17/02:00am - - - - - SE 26 32 14 17 - - -
17/01:30am - - - - - SE 24 30 13 16 - - -
17/01:00am - - - - - SE 28 35 15 19 - - -
17/12:30am - - - - - SE 30 37 16 20 - - -
17/12:00am - - - - - SE 30 35 16 19 - - -
 
Date/Time
CST
Temp
°C
App
Temp
°C
Dew
Point
Rel
Hum
%
Delta-T
°C
Wind Press
QNH
hPa
Press
MSL
hPa
Rain
since 9 am
mm
Dir
 
Spd
km/h
Gust
km/h
Spd
kts
Gust
kts
16/11:30pm - - - - - SE 32 43 17 23 - - -
16/11:00pm - - - - - SE 28 35 15 19 - - -
16/10:30pm - - - - - SE 32 39 17 21 - - -
16/10:00pm - - - - - SE 33 39 18 21 - - -
16/09:30pm - - - - - SE 32 41 17 22 - - -
16/09:00pm - - - - - SE 30 35 16 19 - - -
16/08:30pm - - - - - SE 30 35 16 19 - - -
16/08:00pm - - - - - SE 28 32 15 17 - - -
16/07:30pm - - - - - SE 24 32 13 17 - - -
16/07:00pm - - - - - SE 24 28 13 15 - - -
16/06:30pm - - - - - SE 24 30 13 16 - - -
16/06:00pm - - - - - SE 24 30 13 16 - - -
16/05:30pm - - - - - SE 19 26 10 14 - - -
16/05:00pm - - - - - SE 20 24 11 13 - - -
16/04:30pm - - - - - SE 22 28 12 15 - - -
16/04:00pm - - - - - SE 19 26 10 14 - - -
16/03:30pm - - - - - SE 19 24 10 13 - - -
16/03:00pm - - - - - SSE 17 20 9 11 - - -
16/02:30pm - - - - - SE 13 15 7 8 - - -
16/02:00pm - - - - - ESE 11 17 6 9 - - -
16/01:30pm - - - - - ESE 19 26 10 14 - - -
16/01:00pm - - - - - SE 24 30 13 16 - - -
16/12:30pm - - - - - SE 30 37 16 20 - - -
16/12:00pm - - - - - SE 24 32 13 17 - - -
16/11:30am - - - - - SE 17 22 9 12 - - -
16/11:00am - - - - - SE 13 17 7 9 - - -
16/10:30am - - - - - SE 13 17 7 9 - - -
16/10:00am - - - - - ESE 15 20 8 11 - - -
16/09:30am - - - - - SE 19 24 10 13 - - -
16/09:00am - - - - - SE 24 28 13 15 - - -
16/08:30am - - - - - SE 22 26 12 14 - - -
16/08:00am - - - - - SE 19 22 10 12 - - -
16/07:30am - - - - - SE 17 20 9 11 - - -
16/07:00am - - - - - SE 19 20 10 11 - - -
16/06:30am - - - - - SE 20 24 11 13 - - -
16/06:00am - - - - - SE 26 33 14 18 - - -
16/05:30am - - - - - SE 30 35 16 19 - - -
16/05:00am - - - - - SSE 28 35 15 19 - - -

Other Formats:

Comma delimited format used in spreadsheet applications
http://www.bom.gov.au/fwo/IDS60801/IDS60801.95679.axf

JavaScript Object Notation format (JSON) in row-major order
http://www.bom.gov.au/fwo/IDS60801/IDS60801.95679.json